Hlavní strana
METAR-TAF:

METAR-TAF

Letiště :

Lappeenranta, Finsko

zeměpisná šířka: 61-02-45N, zeměpisná délka: 028-08-55E, výška: 106 m

Aktuální stav počasí

Zpráva byla vytvořena před 20 minutami, v 02:50 UTC
Jihojihozápadní vítr 4 kt, proměnlivý mezi jihojihovýchodním a jihozápadním
Teplota 6°C
Vlhkost vzduchu 100%
Tlak 1022 hPa
Viditelnost 10 km a více
Polojasno ve výšce 500 ft
Zataženo ve výšce 1600 ft

METAR: EFLP 180250Z AUTO 20004KT 160V230 9999 SCT005 OVC016 06/06 Q1022

Čas: 05:10 (03:10 UTC)

Předpověď počasí

Zpráva byla vytvořena před 9 hodinami a 43 minutami, v 17:27 UTC
Předpověď platná od 17 v 18 UTC do 17 v 20 UTC
Jižní vítr 5 kt
Viditelnost 10 km a více
Oblačno až skoro zataženo ve výšce 2500 ft

TAF: EFLP 171727Z 1718/1720 19005KT 9999 BKN025

Stav a předpovědi počasí z více než 4 000 letišť (zprávy METAR a TAF).

Červené a žluté tečky na mapě představují dostupné meteorologické stanice.

Když kurzor umístíte na tečku, zobrazí se název stanice.

Pak kliknutím zobrazíte stav a předpověď počasí.

Chcete-li změnit mapu, kliknutím na zelené tlačítko se znaménkem +mapu přiblížíte, kliknutím na zelené tlačítko se znaménkem – mapu oddálíte a kliknutím na zelené šipky přejdete na sousední mapy.


METAR-TAF: